Inglewood, Florida
Current Conditions -  °F | °C
As of 3:15 PM on Wednesday 28 Jan 2015 (Local Time) from KVNC Reporting Station
Clear Clear  
Wind Chill: 17°   Ceiling: Unl
Heat Index: 17°   Visibility: 10mi
Dew Point:   Wind: 10mph
Humidity: 39%   Direction: 340°NNW
Pressure: 30.17"   Gusts: 22mph
Location:  26.9253°N, 82.3009°W
Report Text: KVNC 282015Z AUTO 34009G19KT 10SM CLR 17/03 A3017 RMK AO2 TSNO
Loading
Personal Weather Stations






























Interactive Weather Map New forecast layout! Learn more

10-Day Weather Forecast

Advertisements
Track Severe Weather on mobile